sensor_id;sensor_type;location;lat;lon;timestamp;P1;durP1;ratioP1;P2;durP2;ratioP2
17261;SDS011;9873;52.236;21.002;2022-08-19T00:02:01;14.15;;;8.93;;
17261;SDS011;9873;52.236;21.002;2022-08-19T00:12:07;13.20;;;9.27;;
17261;SDS011;9873;52.236;21.002;2022-08-19T00:22:12;15.85;;;8.77;;
17261;SDS011;9873;52.236;21.002;2022-08-19T00:32:19;16.52;;;10.23;;
17261;SDS011;9873;52.236;21.002;2022-08-19T00:42:31;14.15;;;9.48;;
17261;SDS011;9873;52.236;21.002;2022-08-19T00:52:36;10.48;;;9.38;;
17261;SDS011;9873;52.236;21.002;2022-08-19T01:02:45;11.90;;;9.68;;
17261;SDS011;9873;52.236;21.002;2022-08-19T01:12:51;11.90;;;9.90;;
17261;SDS011;9873;52.236;21.002;2022-08-19T01:23:00;12.48;;;9.65;;
17261;SDS011;9873;52.236;21.002;2022-08-19T01:33:03;12.90;;;9.55;;
17261;SDS011;9873;52.236;21.002;2022-08-19T01:43:10;14.48;;;9.95;;
17261;SDS011;9873;52.236;21.002;2022-08-19T01:53:16;13.68;;;9.45;;
17261;SDS011;9873;52.236;21.002;2022-08-19T02:03:22;12.05;;;10.77;;
17261;SDS011;9873;52.236;21.002;2022-08-19T02:13:27;14.40;;;11.20;;
17261;SDS011;9873;52.236;21.002;2022-08-19T02:23:31;13.10;;;11.05;;
17261;SDS011;9873;52.236;21.002;2022-08-19T02:33:33;13.10;;;11.25;;
17261;SDS011;9873;52.236;21.002;2022-08-19T02:43:42;15.93;;;11.43;;
17261;SDS011;9873;52.236;21.002;2022-08-19T02:54:08;15.65;;;11.80;;
17261;SDS011;9873;52.236;21.002;2022-08-19T03:04:12;14.77;;;11.52;;
17261;SDS011;9873;52.236;21.002;2022-08-19T03:14:17;16.38;;;11.52;;
17261;SDS011;9873;52.236;21.002;2022-08-19T03:24:22;15.38;;;11.90;;
17261;SDS011;9873;52.236;21.002;2022-08-19T03:34:26;13.23;;;11.20;;
17261;SDS011;9873;52.236;21.002;2022-08-19T03:44:32;14.75;;;12.15;;
17261;SDS011;9873;52.236;21.002;2022-08-19T03:54:37;17.65;;;11.77;;
17261;SDS011;9873;52.236;21.002;2022-08-19T04:04:42;12.88;;;10.93;;
17261;SDS011;9873;52.236;21.002;2022-08-19T04:14:50;16.05;;;11.48;;
17261;SDS011;9873;52.236;21.002;2022-08-19T04:24:52;15.82;;;12.02;;
17261;SDS011;9873;52.236;21.002;2022-08-19T04:34:56;18.33;;;12.32;;
17261;SDS011;9873;52.236;21.002;2022-08-19T04:45:19;16.70;;;12.10;;
17261;SDS011;9873;52.236;21.002;2022-08-19T04:55:27;13.73;;;11.02;;
17261;SDS011;9873;52.236;21.002;2022-08-19T05:05:30;13.13;;;9.65;;
17261;SDS011;9873;52.236;21.002;2022-08-19T05:15:56;14.82;;;9.93;;
17261;SDS011;9873;52.236;21.002;2022-08-19T05:26:00;11.70;;;9.65;;
17261;SDS011;9873;52.236;21.002;2022-08-19T05:36:04;11.57;;;9.85;;
17261;SDS011;9873;52.236;21.002;2022-08-19T05:46:18;14.90;;;10.88;;
17261;SDS011;9873;52.236;21.002;2022-08-19T05:56:30;12.02;;;10.52;;
17261;SDS011;9873;52.236;21.002;2022-08-19T06:06:34;12.18;;;9.70;;
17261;SDS011;9873;52.236;21.002;2022-08-19T06:16:38;16.38;;;9.13;;
17261;SDS011;9873;52.236;21.002;2022-08-19T06:26:46;17.30;;;10.05;;
17261;SDS011;9873;52.236;21.002;2022-08-19T06:36:55;13.00;;;8.77;;
17261;SDS011;9873;52.236;21.002;2022-08-19T06:46:58;9.93;;;8.38;;
17261;SDS011;9873;52.236;21.002;2022-08-19T06:57:05;12.63;;;9.15;;
17261;SDS011;9873;52.236;21.002;2022-08-19T07:07:13;13.95;;;9.40;;
17261;SDS011;9873;52.236;21.002;2022-08-19T07:17:20;13.85;;;8.95;;
17261;SDS011;9873;52.236;21.002;2022-08-19T07:27:28;13.35;;;9.30;;
17261;SDS011;9873;52.236;21.002;2022-08-19T07:37:41;10.68;;;8.95;;
17261;SDS011;9873;52.236;21.002;2022-08-19T07:47:46;11.82;;;8.43;;
17261;SDS011;9873;52.236;21.002;2022-08-19T07:57:51;16.20;;;8.18;;
17261;SDS011;9873;52.236;21.002;2022-08-19T08:07:59;11.02;;;8.57;;
17261;SDS011;9873;52.236;21.002;2022-08-19T08:18:24;10.02;;;8.93;;
17261;SDS011;9873;52.236;21.002;2022-08-19T08:28:33;12.55;;;8.50;;
17261;SDS011;9873;52.236;21.002;2022-08-19T08:38:39;12.85;;;8.02;;
17261;SDS011;9873;52.236;21.002;2022-08-19T08:59:02;18.52;;;9.07;;
17261;SDS011;9873;52.236;21.002;2022-08-19T09:19:32;12.48;;;7.95;;
17261;SDS011;9873;52.236;21.002;2022-08-19T09:29:36;13.02;;;7.75;;
17261;SDS011;9873;52.236;21.002;2022-08-19T09:39:39;10.82;;;7.30;;
17261;SDS011;9873;52.236;21.002;2022-08-19T09:49:46;9.15;;;6.85;;
17261;SDS011;9873;52.236;21.002;2022-08-19T09:59:53;9.45;;;7.25;;
17261;SDS011;9873;52.236;21.002;2022-08-19T10:09:58;14.90;;;7.05;;
17261;SDS011;9873;52.236;21.002;2022-08-19T10:20:06;7.82;;;6.60;;
17261;SDS011;9873;52.236;21.002;2022-08-19T10:30:11;12.52;;;7.15;;
17261;SDS011;9873;52.236;21.002;2022-08-19T10:40:18;12.07;;;7.00;;
17261;SDS011;9873;52.236;21.002;2022-08-19T10:50:26;9.75;;;6.30;;
17261;SDS011;9873;52.236;21.002;2022-08-19T11:00:58;9.75;;;7.07;;
17261;SDS011;9873;52.236;21.002;2022-08-19T11:11:08;11.00;;;7.07;;
17261;SDS011;9873;52.236;21.002;2022-08-19T11:21:12;7.82;;;6.93;;
17261;SDS011;9873;52.236;21.002;2022-08-19T11:31:24;7.97;;;5.32;;
17261;SDS011;9873;52.236;21.002;2022-08-19T11:41:32;11.75;;;7.38;;
17261;SDS011;9873;52.236;21.002;2022-08-19T11:51:43;7.65;;;6.43;;
17261;SDS011;9873;52.236;21.002;2022-08-19T12:02:01;12.90;;;6.90;;
17261;SDS011;9873;52.236;21.002;2022-08-19T12:12:05;10.30;;;5.93;;
17261;SDS011;9873;52.236;21.002;2022-08-19T12:22:12;9.60;;;6.05;;
17261;SDS011;9873;52.236;21.002;2022-08-19T12:32:15;8.45;;;6.00;;
17261;SDS011;9873;52.236;21.002;2022-08-19T12:42:27;7.13;;;6.40;;
17261;SDS011;9873;52.236;21.002;2022-08-19T12:52:32;6.80;;;5.50;;
17261;SDS011;9873;52.236;21.002;2022-08-19T13:02:39;12.70;;;6.15;;
17261;SDS011;9873;52.236;21.002;2022-08-19T13:12:46;10.85;;;6.55;;
17261;SDS011;9873;52.236;21.002;2022-08-19T13:22:50;6.57;;;5.10;;
17261;SDS011;9873;52.236;21.002;2022-08-19T13:32:55;7.57;;;5.80;;
17261;SDS011;9873;52.236;21.002;2022-08-19T13:43:18;8.70;;;6.07;;
17261;SDS011;9873;52.236;21.002;2022-08-19T13:53:27;9.45;;;6.15;;
17261;SDS011;9873;52.236;21.002;2022-08-19T14:03:36;8.18;;;5.50;;
17261;SDS011;9873;52.236;21.002;2022-08-19T14:13:41;10.68;;;5.63;;
17261;SDS011;9873;52.236;21.002;2022-08-19T14:23:44;6.22;;;5.00;;
17261;SDS011;9873;52.236;21.002;2022-08-19T14:33:48;6.82;;;5.25;;
17261;SDS011;9873;52.236;21.002;2022-08-19T14:43:51;8.13;;;4.88;;
17261;SDS011;9873;52.236;21.002;2022-08-19T14:53:55;10.02;;;5.05;;
17261;SDS011;9873;52.236;21.002;2022-08-19T15:04:02;7.38;;;4.68;;
17261;SDS011;9873;52.236;21.002;2022-08-19T15:14:06;8.02;;;4.43;;
17261;SDS011;9873;52.236;21.002;2022-08-19T15:24:14;7.53;;;4.88;;
17261;SDS011;9873;52.236;21.002;2022-08-19T15:34:21;7.38;;;4.60;;
17261;SDS011;9873;52.236;21.002;2022-08-19T15:44:28;7.28;;;5.15;;
17261;SDS011;9873;52.236;21.002;2022-08-19T15:54:31;6.82;;;4.53;;
17261;SDS011;9873;52.236;21.002;2022-08-19T16:04:36;8.20;;;4.93;;
17261;SDS011;9873;52.236;21.002;2022-08-19T16:14:57;6.78;;;4.85;;
17261;SDS011;9873;52.236;21.002;2022-08-19T16:25:01;5.75;;;4.72;;
17261;SDS011;9873;52.236;21.002;2022-08-19T16:35:07;6.85;;;4.88;;
17261;SDS011;9873;52.236;21.002;2022-08-19T16:45:11;8.55;;;4.38;;
17261;SDS011;9873;52.236;21.002;2022-08-19T16:55:14;5.68;;;4.78;;
17261;SDS011;9873;52.236;21.002;2022-08-19T17:05:18;5.57;;;4.03;;
17261;SDS011;9873;52.236;21.002;2022-08-19T17:15:21;7.15;;;4.30;;
17261;SDS011;9873;52.236;21.002;2022-08-19T17:25:28;7.45;;;4.85;;
17261;SDS011;9873;52.236;21.002;2022-08-19T17:35:33;7.28;;;4.63;;
17261;SDS011;9873;52.236;21.002;2022-08-19T17:45:38;7.88;;;4.93;;
17261;SDS011;9873;52.236;21.002;2022-08-19T17:55:54;6.25;;;4.82;;
17261;SDS011;9873;52.236;21.002;2022-08-19T18:06:01;8.55;;;4.53;;
17261;SDS011;9873;52.236;21.002;2022-08-19T18:16:08;6.30;;;5.10;;
17261;SDS011;9873;52.236;21.002;2022-08-19T18:26:12;7.57;;;5.05;;
17261;SDS011;9873;52.236;21.002;2022-08-19T18:36:16;9.07;;;5.07;;
17261;SDS011;9873;52.236;21.002;2022-08-19T18:46:38;12.13;;;5.32;;
17261;SDS011;9873;52.236;21.002;2022-08-19T18:57:00;15.32;;;9.80;;
17261;SDS011;9873;52.236;21.002;2022-08-19T19:07:08;7.45;;;5.60;;
17261;SDS011;9873;52.236;21.002;2022-08-19T19:17:20;7.53;;;5.53;;
17261;SDS011;9873;52.236;21.002;2022-08-19T19:27:31;8.88;;;6.25;;
17261;SDS011;9873;52.236;21.002;2022-08-19T19:37:36;10.25;;;5.47;;
17261;SDS011;9873;52.236;21.002;2022-08-19T19:47:41;11.23;;;4.68;;
17261;SDS011;9873;52.236;21.002;2022-08-19T19:57:50;10.07;;;4.72;;
17261;SDS011;9873;52.236;21.002;2022-08-19T20:07:55;8.10;;;4.78;;
17261;SDS011;9873;52.236;21.002;2022-08-19T20:18:18;8.52;;;5.10;;
17261;SDS011;9873;52.236;21.002;2022-08-19T20:28:25;8.98;;;4.63;;
17261;SDS011;9873;52.236;21.002;2022-08-19T20:38:31;8.93;;;4.57;;
17261;SDS011;9873;52.236;21.002;2022-08-19T20:48:35;10.60;;;4.57;;
17261;SDS011;9873;52.236;21.002;2022-08-19T20:58:41;8.48;;;4.70;;
17261;SDS011;9873;52.236;21.002;2022-08-19T21:08:57;11.68;;;4.72;;
17261;SDS011;9873;52.236;21.002;2022-08-19T21:19:00;9.82;;;4.53;;
17261;SDS011;9873;52.236;21.002;2022-08-19T21:29:05;8.68;;;5.88;;
17261;SDS011;9873;52.236;21.002;2022-08-19T21:39:08;7.03;;;5.10;;
17261;SDS011;9873;52.236;21.002;2022-08-19T21:49:10;7.35;;;4.78;;
17261;SDS011;9873;52.236;21.002;2022-08-19T21:59:18;6.90;;;4.93;;
17261;SDS011;9873;52.236;21.002;2022-08-19T22:09:23;10.15;;;4.90;;
17261;SDS011;9873;52.236;21.002;2022-08-19T22:19:28;10.35;;;5.18;;
17261;SDS011;9873;52.236;21.002;2022-08-19T22:29:31;9.07;;;4.63;;
17261;SDS011;9873;52.236;21.002;2022-08-19T22:39:38;9.95;;;4.55;;
17261;SDS011;9873;52.236;21.002;2022-08-19T22:49:41;8.23;;;4.97;;
17261;SDS011;9873;52.236;21.002;2022-08-19T22:59:45;10.02;;;4.60;;
17261;SDS011;9873;52.236;21.002;2022-08-19T23:09:51;7.63;;;4.55;;
17261;SDS011;9873;52.236;21.002;2022-08-19T23:19:56;8.35;;;4.72;;
17261;SDS011;9873;52.236;21.002;2022-08-19T23:30:03;5.57;;;4.28;;
17261;SDS011;9873;52.236;21.002;2022-08-19T23:40:25;9.20;;;4.65;;
17261;SDS011;9873;52.236;21.002;2022-08-19T23:50:29;13.95;;;5.15;;
